sensor_id;sensor_type;location;lat;lon;timestamp;P1;durP1;ratioP1;P2;durP2;ratioP2
58460;SDS011;45558;37.752;-97.822;2023-12-20T00:01:22;13.50;;;3.20;;
58460;SDS011;45558;37.752;-97.822;2023-12-20T00:03:48;22.25;;;2.30;;
58460;SDS011;45558;37.752;-97.822;2023-12-20T00:06:14;18.13;;;1.75;;
58460;SDS011;45558;37.752;-97.822;2023-12-20T00:08:39;15.48;;;2.00;;
58460;SDS011;45558;37.752;-97.822;2023-12-20T00:11:05;13.45;;;1.73;;
58460;SDS011;45558;37.752;-97.822;2023-12-20T00:13:30;18.48;;;3.85;;
58460;SDS011;45558;37.752;-97.822;2023-12-20T00:15:56;19.20;;;1.92;;
58460;SDS011;45558;37.752;-97.822;2023-12-20T00:18:22;12.27;;;1.23;;
58460;SDS011;45558;37.752;-97.822;2023-12-20T00:20:48;13.05;;;2.08;;
58460;SDS011;45558;37.752;-97.822;2023-12-20T00:23:14;13.38;;;1.80;;
58460;SDS011;45558;37.752;-97.822;2023-12-20T00:25:39;16.25;;;1.55;;
58460;SDS011;45558;37.752;-97.822;2023-12-20T00:28:05;18.58;;;2.30;;
58460;SDS011;45558;37.752;-97.822;2023-12-20T00:30:31;17.88;;;1.95;;
58460;SDS011;45558;37.752;-97.822;2023-12-20T00:32:57;21.15;;;2.25;;
58460;SDS011;45558;37.752;-97.822;2023-12-20T00:35:23;14.27;;;1.60;;
58460;SDS011;45558;37.752;-97.822;2023-12-20T00:37:49;14.35;;;1.65;;
58460;SDS011;45558;37.752;-97.822;2023-12-20T00:40:15;21.35;;;2.13;;
58460;SDS011;45558;37.752;-97.822;2023-12-20T00:42:41;24.33;;;2.38;;
58460;SDS011;45558;37.752;-97.822;2023-12-20T00:45:07;14.30;;;1.90;;
58460;SDS011;45558;37.752;-97.822;2023-12-20T00:47:33;13.32;;;1.42;;
58460;SDS011;45558;37.752;-97.822;2023-12-20T00:49:58;17.02;;;1.45;;
58460;SDS011;45558;37.752;-97.822;2023-12-20T00:52:24;14.98;;;2.42;;
58460;SDS011;45558;37.752;-97.822;2023-12-20T00:54:50;18.77;;;1.88;;
58460;SDS011;45558;37.752;-97.822;2023-12-20T00:57:16;14.40;;;2.00;;
58460;SDS011;45558;37.752;-97.822;2023-12-20T00:59:42;19.50;;;2.50;;
58460;SDS011;45558;37.752;-97.822;2023-12-20T01:02:08;18.27;;;2.40;;
58460;SDS011;45558;37.752;-97.822;2023-12-20T01:04:35;17.02;;;1.83;;
58460;SDS011;45558;37.752;-97.822;2023-12-20T01:07:01;20.52;;;1.95;;
58460;SDS011;45558;37.752;-97.822;2023-12-20T01:09:27;16.48;;;1.70;;
58460;SDS011;45558;37.752;-97.822;2023-12-20T01:11:52;14.10;;;2.72;;
58460;SDS011;45558;37.752;-97.822;2023-12-20T01:14:18;15.68;;;2.08;;
58460;SDS011;45558;37.752;-97.822;2023-12-20T01:16:44;14.98;;;1.73;;
58460;SDS011;45558;37.752;-97.822;2023-12-20T01:19:10;15.85;;;1.70;;
58460;SDS011;45558;37.752;-97.822;2023-12-20T01:21:36;20.58;;;2.08;;
58460;SDS011;45558;37.752;-97.822;2023-12-20T01:24:01;13.55;;;1.88;;
58460;SDS011;45558;37.752;-97.822;2023-12-20T01:26:27;24.58;;;2.10;;
58460;SDS011;45558;37.752;-97.822;2023-12-20T01:28:53;18.73;;;2.78;;
58460;SDS011;45558;37.752;-97.822;2023-12-20T01:31:19;18.52;;;2.80;;
58460;SDS011;45558;37.752;-97.822;2023-12-20T01:33:44;18.63;;;1.60;;
58460;SDS011;45558;37.752;-97.822;2023-12-20T01:36:10;16.42;;;2.30;;
58460;SDS011;45558;37.752;-97.822;2023-12-20T01:38:36;29.48;;;4.45;;
58460;SDS011;45558;37.752;-97.822;2023-12-20T01:41:02;20.20;;;2.05;;
58460;SDS011;45558;37.752;-97.822;2023-12-20T01:43:29;16.27;;;1.90;;
58460;SDS011;45558;37.752;-97.822;2023-12-20T01:45:55;22.42;;;1.85;;
58460;SDS011;45558;37.752;-97.822;2023-12-20T01:48:22;17.52;;;2.03;;
58460;SDS011;45558;37.752;-97.822;2023-12-20T01:50:49;16.90;;;2.47;;
58460;SDS011;45558;37.752;-97.822;2023-12-20T01:53:15;10.05;;;1.70;;
58460;SDS011;45558;37.752;-97.822;2023-12-20T01:55:41;16.75;;;1.77;;
58460;SDS011;45558;37.752;-97.822;2023-12-20T01:58:07;15.68;;;2.35;;
58460;SDS011;45558;37.752;-97.822;2023-12-20T02:00:35;19.75;;;2.42;;
58460;SDS011;45558;37.752;-97.822;2023-12-20T02:03:02;16.42;;;1.80;;
58460;SDS011;45558;37.752;-97.822;2023-12-20T02:05:31;17.20;;;2.45;;
58460;SDS011;45558;37.752;-97.822;2023-12-20T02:07:58;18.20;;;2.05;;
58460;SDS011;45558;37.752;-97.822;2023-12-20T02:10:24;13.32;;;1.70;;
58460;SDS011;45558;37.752;-97.822;2023-12-20T02:12:49;17.25;;;1.67;;
58460;SDS011;45558;37.752;-97.822;2023-12-20T02:15:15;16.70;;;2.35;;
58460;SDS011;45558;37.752;-97.822;2023-12-20T02:17:41;15.40;;;1.80;;
58460;SDS011;45558;37.752;-97.822;2023-12-20T02:20:06;16.08;;;2.00;;
58460;SDS011;45558;37.752;-97.822;2023-12-20T02:22:32;19.30;;;2.35;;
58460;SDS011;45558;37.752;-97.822;2023-12-20T02:24:58;23.63;;;2.03;;
58460;SDS011;45558;37.752;-97.822;2023-12-20T02:27:24;13.38;;;1.23;;
58460;SDS011;45558;37.752;-97.822;2023-12-20T02:29:50;11.57;;;2.42;;
58460;SDS011;45558;37.752;-97.822;2023-12-20T02:32:16;16.08;;;1.27;;
58460;SDS011;45558;37.752;-97.822;2023-12-20T02:34:42;24.67;;;3.22;;
58460;SDS011;45558;37.752;-97.822;2023-12-20T02:37:08;10.68;;;1.30;;
58460;SDS011;45558;37.752;-97.822;2023-12-20T02:39:35;9.48;;;1.35;;
58460;SDS011;45558;37.752;-97.822;2023-12-20T02:42:00;14.18;;;1.83;;
58460;SDS011;45558;37.752;-97.822;2023-12-20T02:44:26;14.95;;;1.67;;
58460;SDS011;45558;37.752;-97.822;2023-12-20T02:46:52;15.88;;;0.95;;
58460;SDS011;45558;37.752;-97.822;2023-12-20T02:49:17;8.82;;;1.20;;
58460;SDS011;45558;37.752;-97.822;2023-12-20T02:51:43;10.95;;;1.27;;
58460;SDS011;45558;37.752;-97.822;2023-12-20T02:54:09;9.77;;;1.20;;
58460;SDS011;45558;37.752;-97.822;2023-12-20T02:56:34;17.73;;;3.30;;
58460;SDS011;45558;37.752;-97.822;2023-12-20T02:59:00;8.98;;;1.10;;
58460;SDS011;45558;37.752;-97.822;2023-12-20T03:01:27;13.48;;;1.40;;
58460;SDS011;45558;37.752;-97.822;2023-12-20T03:03:53;15.15;;;1.63;;
58460;SDS011;45558;37.752;-97.822;2023-12-20T03:06:19;9.10;;;1.10;;
58460;SDS011;45558;37.752;-97.822;2023-12-20T03:08:45;14.75;;;1.67;;
58460;SDS011;45558;37.752;-97.822;2023-12-20T03:11:11;15.63;;;1.17;;
58460;SDS011;45558;37.752;-97.822;2023-12-20T03:13:36;15.00;;;1.63;;
58460;SDS011;45558;37.752;-97.822;2023-12-20T03:16:11;14.95;;;1.33;;
58460;SDS011;45558;37.752;-97.822;2023-12-20T03:18:37;16.95;;;2.00;;
58460;SDS011;45558;37.752;-97.822;2023-12-20T03:21:06;13.45;;;1.92;;
58460;SDS011;45558;37.752;-97.822;2023-12-20T03:23:31;18.35;;;1.60;;
58460;SDS011;45558;37.752;-97.822;2023-12-20T03:25:59;11.77;;;1.60;;
58460;SDS011;45558;37.752;-97.822;2023-12-20T03:28:27;11.27;;;0.80;;
58460;SDS011;45558;37.752;-97.822;2023-12-20T03:30:53;11.85;;;1.25;;
58460;SDS011;45558;37.752;-97.822;2023-12-20T03:33:18;7.30;;;2.22;;
58460;SDS011;45558;37.752;-97.822;2023-12-20T03:35:44;8.77;;;1.20;;
58460;SDS011;45558;37.752;-97.822;2023-12-20T03:38:10;11.63;;;1.80;;
58460;SDS011;45558;37.752;-97.822;2023-12-20T03:40:36;11.05;;;1.67;;
58460;SDS011;45558;37.752;-97.822;2023-12-20T03:46:23;10.63;;;1.25;;
58460;SDS011;45558;37.752;-97.822;2023-12-20T03:48:48;10.20;;;0.90;;
58460;SDS011;45558;37.752;-97.822;2023-12-20T03:51:14;12.02;;;1.00;;
58460;SDS011;45558;37.752;-97.822;2023-12-20T03:53:40;13.20;;;1.20;;
58460;SDS011;45558;37.752;-97.822;2023-12-20T03:56:05;11.40;;;1.30;;
58460;SDS011;45558;37.752;-97.822;2023-12-20T03:58:31;12.95;;;1.42;;
58460;SDS011;45558;37.752;-97.822;2023-12-20T04:00:57;9.45;;;1.00;;
58460;SDS011;45558;37.752;-97.822;2023-12-20T04:03:22;16.73;;;2.03;;
58460;SDS011;45558;37.752;-97.822;2023-12-20T04:05:48;18.70;;;1.75;;
58460;SDS011;45558;37.752;-97.822;2023-12-20T04:08:14;9.77;;;1.60;;
58460;SDS011;45558;37.752;-97.822;2023-12-20T04:10:40;9.77;;;1.13;;
58460;SDS011;45558;37.752;-97.822;2023-12-20T04:13:05;12.55;;;1.50;;
58460;SDS011;45558;37.752;-97.822;2023-12-20T04:15:31;8.48;;;1.45;;
58460;SDS011;45558;37.752;-97.822;2023-12-20T04:17:57;11.20;;;2.35;;
58460;SDS011;45558;37.752;-97.822;2023-12-20T04:20:22;18.17;;;1.58;;
58460;SDS011;45558;37.752;-97.822;2023-12-20T04:22:48;17.85;;;1.27;;
58460;SDS011;45558;37.752;-97.822;2023-12-20T04:25:14;27.33;;;2.47;;
58460;SDS011;45558;37.752;-97.822;2023-12-20T04:27:40;14.88;;;1.67;;
58460;SDS011;45558;37.752;-97.822;2023-12-20T04:30:05;12.52;;;2.42;;
58460;SDS011;45558;37.752;-97.822;2023-12-20T04:32:32;13.38;;;1.83;;
58460;SDS011;45558;37.752;-97.822;2023-12-20T04:34:58;13.68;;;1.60;;
58460;SDS011;45558;37.752;-97.822;2023-12-20T04:37:24;17.50;;;1.80;;
58460;SDS011;45558;37.752;-97.822;2023-12-20T04:39:50;17.33;;;2.25;;
58460;SDS011;45558;37.752;-97.822;2023-12-20T04:45:37;17.83;;;1.73;;
58460;SDS011;45558;37.752;-97.822;2023-12-20T04:48:03;12.73;;;1.42;;
58460;SDS011;45558;37.752;-97.822;2023-12-20T04:50:29;22.25;;;2.25;;
58460;SDS011;45558;37.752;-97.822;2023-12-20T04:56:16;16.67;;;2.20;;
58460;SDS011;45558;37.752;-97.822;2023-12-20T04:58:42;23.42;;;3.25;;
58460;SDS011;45558;37.752;-97.822;2023-12-20T05:01:08;17.95;;;1.60;;
58460;SDS011;45558;37.752;-97.822;2023-12-20T05:03:34;16.45;;;1.80;;
58460;SDS011;45558;37.752;-97.822;2023-12-20T05:06:00;11.85;;;1.25;;
58460;SDS011;45558;37.752;-97.822;2023-12-20T05:08:26;19.50;;;2.90;;
58460;SDS011;45558;37.752;-97.822;2023-12-20T05:10:53;19.05;;;1.65;;
58460;SDS011;45558;37.752;-97.822;2023-12-20T05:13:19;17.65;;;1.55;;
58460;SDS011;45558;37.752;-97.822;2023-12-20T05:15:45;18.25;;;1.65;;
58460;SDS011;45558;37.752;-97.822;2023-12-20T05:18:11;14.70;;;2.20;;
58460;SDS011;45558;37.752;-97.822;2023-12-20T05:20:37;14.05;;;2.03;;
58460;SDS011;45558;37.752;-97.822;2023-12-20T05:23:03;14.43;;;2.58;;
58460;SDS011;45558;37.752;-97.822;2023-12-20T05:25:29;9.00;;;1.10;;
58460;SDS011;45558;37.752;-97.822;2023-12-20T05:27:54;14.48;;;1.73;;
58460;SDS011;45558;37.752;-97.822;2023-12-20T05:30:21;8.60;;;1.33;;
58460;SDS011;45558;37.752;-97.822;2023-12-20T05:32:46;15.13;;;1.33;;
58460;SDS011;45558;37.752;-97.822;2023-12-20T05:35:12;11.48;;;1.70;;
58460;SDS011;45558;37.752;-97.822;2023-12-20T05:37:38;11.50;;;1.70;;
58460;SDS011;45558;37.752;-97.822;2023-12-20T05:40:03;11.20;;;1.00;;
58460;SDS011;45558;37.752;-97.822;2023-12-20T05:42:30;15.02;;;1.88;;
58460;SDS011;45558;37.752;-97.822;2023-12-20T05:44:55;20.23;;;1.60;;
58460;SDS011;45558;37.752;-97.822;2023-12-20T05:47:21;17.48;;;2.13;;
58460;SDS011;45558;37.752;-97.822;2023-12-20T05:49:46;12.50;;;1.63;;
58460;SDS011;45558;37.752;-97.822;2023-12-20T05:52:13;10.80;;;1.52;;
58460;SDS011;45558;37.752;-97.822;2023-12-20T05:54:38;12.68;;;1.35;;
58460;SDS011;45558;37.752;-97.822;2023-12-20T05:57:04;16.30;;;1.40;;
58460;SDS011;45558;37.752;-97.822;2023-12-20T05:59:30;16.38;;;1.23;;
58460;SDS011;45558;37.752;-97.822;2023-12-20T06:01:56;14.18;;;2.33;;
58460;SDS011;45558;37.752;-97.822;2023-12-20T06:04:22;10.48;;;1.38;;
58460;SDS011;45558;37.752;-97.822;2023-12-20T06:06:48;19.13;;;1.58;;
58460;SDS011;45558;37.752;-97.822;2023-12-20T06:09:13;11.60;;;1.20;;
58460;SDS011;45558;37.752;-97.822;2023-12-20T06:11:40;15.52;;;1.45;;
58460;SDS011;45558;37.752;-97.822;2023-12-20T06:14:06;11.38;;;1.70;;
58460;SDS011;45558;37.752;-97.822;2023-12-20T06:16:31;14.82;;;1.80;;
58460;SDS011;45558;37.752;-97.822;2023-12-20T06:18:57;18.23;;;2.35;;
58460;SDS011;45558;37.752;-97.822;2023-12-20T06:21:23;12.98;;;1.20;;
58460;SDS011;45558;37.752;-97.822;2023-12-20T06:23:49;13.35;;;1.63;;
58460;SDS011;45558;37.752;-97.822;2023-12-20T06:26:15;14.48;;;1.08;;
58460;SDS011;45558;37.752;-97.822;2023-12-20T06:28:41;13.38;;;1.25;;
58460;SDS011;45558;37.752;-97.822;2023-12-20T06:31:07;11.18;;;1.30;;
58460;SDS011;45558;37.752;-97.822;2023-12-20T06:33:34;13.70;;;1.88;;
58460;SDS011;45558;37.752;-97.822;2023-12-20T06:35:59;9.85;;;1.15;;
58460;SDS011;45558;37.752;-97.822;2023-12-20T06:38:26;16.75;;;1.40;;
58460;SDS011;45558;37.752;-97.822;2023-12-20T06:40:51;16.45;;;1.60;;
58460;SDS011;45558;37.752;-97.822;2023-12-20T06:43:17;16.60;;;1.95;;
58460;SDS011;45558;37.752;-97.822;2023-12-20T06:45:43;11.45;;;1.77;;
58460;SDS011;45558;37.752;-97.822;2023-12-20T06:48:08;16.95;;;1.73;;
58460;SDS011;45558;37.752;-97.822;2023-12-20T06:50:37;17.58;;;2.00;;
58460;SDS011;45558;37.752;-97.822;2023-12-20T06:53:06;16.17;;;2.38;;
58460;SDS011;45558;37.752;-97.822;2023-12-20T06:55:33;13.02;;;1.50;;
58460;SDS011;45558;37.752;-97.822;2023-12-20T06:58:01;14.32;;;1.70;;
58460;SDS011;45558;37.752;-97.822;2023-12-20T07:00:27;21.13;;;1.90;;
58460;SDS011;45558;37.752;-97.822;2023-12-20T07:02:53;18.27;;;2.25;;
58460;SDS011;45558;37.752;-97.822;2023-12-20T07:05:19;13.57;;;1.95;;
58460;SDS011;45558;37.752;-97.822;2023-12-20T07:07:45;13.85;;;1.48;;
58460;SDS011;45558;37.752;-97.822;2023-12-20T07:10:12;15.07;;;1.35;;
58460;SDS011;45558;37.752;-97.822;2023-12-20T07:12:38;14.55;;;1.95;;
58460;SDS011;45558;37.752;-97.822;2023-12-20T07:15:04;12.85;;;2.50;;
58460;SDS011;45558;37.752;-97.822;2023-12-20T07:17:33;16.52;;;1.50;;
58460;SDS011;45558;37.752;-97.822;2023-12-20T07:19:59;13.52;;;1.75;;
58460;SDS011;45558;37.752;-97.822;2023-12-20T07:22:32;9.88;;;1.60;;
58460;SDS011;45558;37.752;-97.822;2023-12-20T07:24:59;14.35;;;1.58;;
58460;SDS011;45558;37.752;-97.822;2023-12-20T07:27:25;15.15;;;3.13;;
58460;SDS011;45558;37.752;-97.822;2023-12-20T07:29:51;15.30;;;1.50;;
58460;SDS011;45558;37.752;-97.822;2023-12-20T07:32:17;17.65;;;2.03;;
58460;SDS011;45558;37.752;-97.822;2023-12-20T07:34:43;12.25;;;1.83;;
58460;SDS011;45558;37.752;-97.822;2023-12-20T07:37:09;14.63;;;1.60;;
58460;SDS011;45558;37.752;-97.822;2023-12-20T07:39:41;16.05;;;2.35;;
58460;SDS011;45558;37.752;-97.822;2023-12-20T07:42:07;11.77;;;1.90;;
58460;SDS011;45558;37.752;-97.822;2023-12-20T07:44:34;18.27;;;1.52;;
58460;SDS011;45558;37.752;-97.822;2023-12-20T07:47:01;17.20;;;1.48;;
58460;SDS011;45558;37.752;-97.822;2023-12-20T07:49:27;17.65;;;1.85;;
58460;SDS011;45558;37.752;-97.822;2023-12-20T07:51:53;17.20;;;2.15;;
58460;SDS011;45558;37.752;-97.822;2023-12-20T07:54:18;18.00;;;2.25;;
58460;SDS011;45558;37.752;-97.822;2023-12-20T07:56:45;8.50;;;2.03;;
58460;SDS011;45558;37.752;-97.822;2023-12-20T07:59:11;18.60;;;2.50;;
58460;SDS011;45558;37.752;-97.822;2023-12-20T08:01:37;16.75;;;2.67;;
58460;SDS011;45558;37.752;-97.822;2023-12-20T08:04:04;16.45;;;2.10;;
58460;SDS011;45558;37.752;-97.822;2023-12-20T08:06:30;16.88;;;1.98;;
58460;SDS011;45558;37.752;-97.822;2023-12-20T08:08:56;14.90;;;1.90;;
58460;SDS011;45558;37.752;-97.822;2023-12-20T08:11:22;15.80;;;1.95;;
58460;SDS011;45558;37.752;-97.822;2023-12-20T08:13:48;18.35;;;2.53;;
58460;SDS011;45558;37.752;-97.822;2023-12-20T08:16:13;19.70;;;2.63;;
58460;SDS011;45558;37.752;-97.822;2023-12-20T08:18:40;18.85;;;2.17;;
58460;SDS011;45558;37.752;-97.822;2023-12-20T08:21:12;18.75;;;2.58;;
58460;SDS011;45558;37.752;-97.822;2023-12-20T08:23:38;9.68;;;1.75;;
58460;SDS011;45558;37.752;-97.822;2023-12-20T08:26:05;10.80;;;1.48;;
58460;SDS011;45558;37.752;-97.822;2023-12-20T08:28:31;14.13;;;1.67;;
58460;SDS011;45558;37.752;-97.822;2023-12-20T08:30:57;21.55;;;2.08;;
58460;SDS011;45558;37.752;-97.822;2023-12-20T08:33:23;18.63;;;1.77;;
58460;SDS011;45558;37.752;-97.822;2023-12-20T08:35:48;20.77;;;2.67;;
58460;SDS011;45558;37.752;-97.822;2023-12-20T08:38:14;18.95;;;2.40;;
58460;SDS011;45558;37.752;-97.822;2023-12-20T08:40:40;24.90;;;2.70;;
58460;SDS011;45558;37.752;-97.822;2023-12-20T08:43:06;22.55;;;2.45;;
58460;SDS011;45558;37.752;-97.822;2023-12-20T08:45:32;15.90;;;2.08;;
58460;SDS011;45558;37.752;-97.822;2023-12-20T08:47:59;19.15;;;2.30;;
58460;SDS011;45558;37.752;-97.822;2023-12-20T08:50:25;24.80;;;3.35;;
58460;SDS011;45558;37.752;-97.822;2023-12-20T08:52:51;19.50;;;2.50;;
58460;SDS011;45558;37.752;-97.822;2023-12-20T08:55:17;21.58;;;3.03;;
58460;SDS011;45558;37.752;-97.822;2023-12-20T08:57:44;19.80;;;2.30;;
58460;SDS011;45558;37.752;-97.822;2023-12-20T09:00:10;19.70;;;3.83;;
58460;SDS011;45558;37.752;-97.822;2023-12-20T09:02:37;22.25;;;3.45;;
58460;SDS011;45558;37.752;-97.822;2023-12-20T09:05:04;17.75;;;2.95;;
58460;SDS011;45558;37.752;-97.822;2023-12-20T09:07:30;26.90;;;3.80;;
58460;SDS011;45558;37.752;-97.822;2023-12-20T09:09:57;21.40;;;3.22;;
58460;SDS011;45558;37.752;-97.822;2023-12-20T09:12:24;34.40;;;4.05;;
58460;SDS011;45558;37.752;-97.822;2023-12-20T09:14:50;30.15;;;4.72;;
58460;SDS011;45558;37.752;-97.822;2023-12-20T09:17:17;23.42;;;3.22;;
58460;SDS011;45558;37.752;-97.822;2023-12-20T09:19:43;31.35;;;4.18;;
58460;SDS011;45558;37.752;-97.822;2023-12-20T09:22:10;34.85;;;7.10;;
58460;SDS011;45558;37.752;-97.822;2023-12-20T09:24:36;33.35;;;4.18;;
58460;SDS011;45558;37.752;-97.822;2023-12-20T09:27:02;40.00;;;4.57;;
58460;SDS011;45558;37.752;-97.822;2023-12-20T09:29:28;28.15;;;4.00;;
58460;SDS011;45558;37.752;-97.822;2023-12-20T09:35:16;27.83;;;3.85;;
58460;SDS011;45558;37.752;-97.822;2023-12-20T09:37:42;46.90;;;8.18;;
58460;SDS011;45558;37.752;-97.822;2023-12-20T09:40:10;31.60;;;5.07;;
58460;SDS011;45558;37.752;-97.822;2023-12-20T09:45:16;29.27;;;3.92;;
58460;SDS011;45558;37.752;-97.822;2023-12-20T09:47:47;41.28;;;5.43;;
58460;SDS011;45558;37.752;-97.822;2023-12-20T09:50:13;42.33;;;5.57;;
58460;SDS011;45558;37.752;-97.822;2023-12-20T09:52:39;41.88;;;6.70;;
58460;SDS011;45558;37.752;-97.822;2023-12-20T09:55:06;42.45;;;4.68;;
58460;SDS011;45558;37.752;-97.822;2023-12-20T09:57:33;32.70;;;3.75;;
58460;SDS011;45558;37.752;-97.822;2023-12-20T09:59:59;36.83;;;4.65;;
58460;SDS011;45558;37.752;-97.822;2023-12-20T10:02:25;29.42;;;3.42;;
58460;SDS011;45558;37.752;-97.822;2023-12-20T10:04:54;38.15;;;5.47;;
58460;SDS011;45558;37.752;-97.822;2023-12-20T10:07:21;29.10;;;3.97;;
58460;SDS011;45558;37.752;-97.822;2023-12-20T10:09:51;28.00;;;4.38;;
58460;SDS011;45558;37.752;-97.822;2023-12-20T10:12:19;34.03;;;4.43;;
58460;SDS011;45558;37.752;-97.822;2023-12-20T10:14:45;26.85;;;4.40;;
58460;SDS011;45558;37.752;-97.822;2023-12-20T10:17:10;22.98;;;4.95;;
58460;SDS011;45558;37.752;-97.822;2023-12-20T10:19:36;29.92;;;3.60;;
58460;SDS011;45558;37.752;-97.822;2023-12-20T10:22:03;28.10;;;3.47;;
58460;SDS011;45558;37.752;-97.822;2023-12-20T10:24:30;28.48;;;4.88;;
58460;SDS011;45558;37.752;-97.822;2023-12-20T10:27:03;32.30;;;4.65;;
58460;SDS011;45558;37.752;-97.822;2023-12-20T10:29:34;32.70;;;3.90;;
58460;SDS011;45558;37.752;-97.822;2023-12-20T10:32:22;29.10;;;4.40;;
58460;SDS011;45558;37.752;-97.822;2023-12-20T10:34:49;26.63;;;4.35;;
58460;SDS011;45558;37.752;-97.822;2023-12-20T10:37:16;26.27;;;4.82;;
58460;SDS011;45558;37.752;-97.822;2023-12-20T10:39:42;26.15;;;4.07;;
58460;SDS011;45558;37.752;-97.822;2023-12-20T10:42:11;25.98;;;4.60;;
58460;SDS011;45558;37.752;-97.822;2023-12-20T10:44:37;26.10;;;3.83;;
58460;SDS011;45558;37.752;-97.822;2023-12-20T10:47:04;24.67;;;3.67;;
58460;SDS011;45558;37.752;-97.822;2023-12-20T10:49:30;31.80;;;3.75;;
58460;SDS011;45558;37.752;-97.822;2023-12-20T10:51:57;23.13;;;3.90;;
58460;SDS011;45558;37.752;-97.822;2023-12-20T10:54:25;24.10;;;4.07;;
58460;SDS011;45558;37.752;-97.822;2023-12-20T10:56:51;37.47;;;5.13;;
58460;SDS011;45558;37.752;-97.822;2023-12-20T10:59:19;42.17;;;5.97;;
58460;SDS011;45558;37.752;-97.822;2023-12-20T11:01:45;36.80;;;5.30;;
58460;SDS011;45558;37.752;-97.822;2023-12-20T11:04:15;44.13;;;5.47;;
58460;SDS011;45558;37.752;-97.822;2023-12-20T11:06:47;37.38;;;5.10;;
58460;SDS011;45558;37.752;-97.822;2023-12-20T11:09:23;32.35;;;4.70;;
58460;SDS011;45558;37.752;-97.822;2023-12-20T11:17:15;38.80;;;3.78;;
58460;SDS011;45558;37.752;-97.822;2023-12-20T11:25:48;37.60;;;5.50;;
58460;SDS011;45558;37.752;-97.822;2023-12-20T11:28:21;42.78;;;5.80;;
58460;SDS011;45558;37.752;-97.822;2023-12-20T11:30:50;45.75;;;7.00;;
58460;SDS011;45558;37.752;-97.822;2023-12-20T11:33:21;48.67;;;6.32;;
58460;SDS011;45558;37.752;-97.822;2023-12-20T11:35:47;47.00;;;7.88;;
58460;SDS011;45558;37.752;-97.822;2023-12-20T11:38:13;40.97;;;6.57;;
58460;SDS011;45558;37.752;-97.822;2023-12-20T11:40:40;40.55;;;5.32;;
58460;SDS011;45558;37.752;-97.822;2023-12-20T11:43:09;51.28;;;6.82;;
58460;SDS011;45558;37.752;-97.822;2023-12-20T11:45:35;41.90;;;5.25;;
58460;SDS011;45558;37.752;-97.822;2023-12-20T11:48:04;53.78;;;7.10;;
58460;SDS011;45558;37.752;-97.822;2023-12-20T11:50:30;47.28;;;6.00;;
58460;SDS011;45558;37.752;-97.822;2023-12-20T11:52:56;48.75;;;6.03;;
58460;SDS011;45558;37.752;-97.822;2023-12-20T11:55:22;48.25;;;5.32;;
58460;SDS011;45558;37.752;-97.822;2023-12-20T11:57:49;58.42;;;6.47;;
58460;SDS011;45558;37.752;-97.822;2023-12-20T12:00:15;46.50;;;6.07;;
58460;SDS011;45558;37.752;-97.822;2023-12-20T12:02:41;36.50;;;5.45;;
58460;SDS011;45558;37.752;-97.822;2023-12-20T12:05:07;50.03;;;6.55;;
58460;SDS011;45558;37.752;-97.822;2023-12-20T12:07:33;41.28;;;5.40;;
58460;SDS011;45558;37.752;-97.822;2023-12-20T12:10:00;36.72;;;6.65;;
58460;SDS011;45558;37.752;-97.822;2023-12-20T12:12:26;43.72;;;5.53;;
58460;SDS011;45558;37.752;-97.822;2023-12-20T12:14:52;42.97;;;6.25;;
58460;SDS011;45558;37.752;-97.822;2023-12-20T12:17:19;40.15;;;5.38;;
58460;SDS011;45558;37.752;-97.822;2023-12-20T12:19:45;41.50;;;6.10;;
58460;SDS011;45558;37.752;-97.822;2023-12-20T12:22:14;40.03;;;5.82;;
58460;SDS011;45558;37.752;-97.822;2023-12-20T12:24:42;33.65;;;5.28;;
58460;SDS011;45558;37.752;-97.822;2023-12-20T12:27:08;47.60;;;5.68;;
58460;SDS011;45558;37.752;-97.822;2023-12-20T12:29:35;30.40;;;4.55;;
58460;SDS011;45558;37.752;-97.822;2023-12-20T12:32:04;38.50;;;6.75;;
58460;SDS011;45558;37.752;-97.822;2023-12-20T12:34:32;40.63;;;5.57;;
58460;SDS011;45558;37.752;-97.822;2023-12-20T12:36:59;35.65;;;5.65;;
58460;SDS011;45558;37.752;-97.822;2023-12-20T12:39:25;44.33;;;7.00;;
58460;SDS011;45558;37.752;-97.822;2023-12-20T12:41:51;41.15;;;5.95;;
58460;SDS011;45558;37.752;-97.822;2023-12-20T12:44:17;41.58;;;5.85;;
58460;SDS011;45558;37.752;-97.822;2023-12-20T12:46:46;35.47;;;4.75;;
58460;SDS011;45558;37.752;-97.822;2023-12-20T12:49:12;42.83;;;5.25;;
58460;SDS011;45558;37.752;-97.822;2023-12-20T12:51:38;44.58;;;5.50;;
58460;SDS011;45558;37.752;-97.822;2023-12-20T12:54:05;34.97;;;5.35;;
58460;SDS011;45558;37.752;-97.822;2023-12-20T12:56:30;34.72;;;4.80;;
58460;SDS011;45558;37.752;-97.822;2023-12-20T12:58:57;34.97;;;5.95;;
58460;SDS011;45558;37.752;-97.822;2023-12-20T13:01:22;33.28;;;5.65;;
58460;SDS011;45558;37.752;-97.822;2023-12-20T13:03:49;48.65;;;6.60;;
58460;SDS011;45558;37.752;-97.822;2023-12-20T13:06:15;33.47;;;4.25;;
58460;SDS011;45558;37.752;-97.822;2023-12-20T13:08:42;37.47;;;4.32;;
58460;SDS011;45558;37.752;-97.822;2023-12-20T13:11:09;35.80;;;6.30;;
58460;SDS011;45558;37.752;-97.822;2023-12-20T13:13:35;36.60;;;5.22;;
58460;SDS011;45558;37.752;-97.822;2023-12-20T13:16:01;33.47;;;5.28;;
58460;SDS011;45558;37.752;-97.822;2023-12-20T13:18:27;33.45;;;4.63;;
58460;SDS011;45558;37.752;-97.822;2023-12-20T13:20:53;39.05;;;4.78;;
58460;SDS011;45558;37.752;-97.822;2023-12-20T13:23:19;38.30;;;4.05;;
58460;SDS011;45558;37.752;-97.822;2023-12-20T13:25:45;42.08;;;5.45;;
58460;SDS011;45558;37.752;-97.822;2023-12-20T13:28:11;31.38;;;5.43;;
58460;SDS011;45558;37.752;-97.822;2023-12-20T13:30:38;32.90;;;5.90;;
58460;SDS011;45558;37.752;-97.822;2023-12-20T13:33:04;33.38;;;4.65;;
58460;SDS011;45558;37.752;-97.822;2023-12-20T13:35:31;29.77;;;4.00;;
58460;SDS011;45558;37.752;-97.822;2023-12-20T13:37:57;32.03;;;5.63;;
58460;SDS011;45558;37.752;-97.822;2023-12-20T13:40:24;40.80;;;7.22;;
58460;SDS011;45558;37.752;-97.822;2023-12-20T13:42:50;48.03;;;4.68;;
58460;SDS011;45558;37.752;-97.822;2023-12-20T13:45:15;38.42;;;5.55;;
58460;SDS011;45558;37.752;-97.822;2023-12-20T13:47:42;32.88;;;5.53;;
58460;SDS011;45558;37.752;-97.822;2023-12-20T13:50:08;45.47;;;5.97;;
58460;SDS011;45558;37.752;-97.822;2023-12-20T13:52:34;51.65;;;6.10;;
58460;SDS011;45558;37.752;-97.822;2023-12-20T13:55:01;29.73;;;5.32;;
58460;SDS011;45558;37.752;-97.822;2023-12-20T13:57:27;30.83;;;4.60;;
58460;SDS011;45558;37.752;-97.822;2023-12-20T13:59:54;30.23;;;4.10;;
58460;SDS011;45558;37.752;-97.822;2023-12-20T14:02:22;26.10;;;4.45;;
58460;SDS011;45558;37.752;-97.822;2023-12-20T14:04:48;27.00;;;3.60;;
58460;SDS011;45558;37.752;-97.822;2023-12-20T14:07:14;24.58;;;3.40;;
58460;SDS011;45558;37.752;-97.822;2023-12-20T14:09:40;31.40;;;4.15;;
58460;SDS011;45558;37.752;-97.822;2023-12-20T14:12:14;22.85;;;3.58;;
58460;SDS011;45558;37.752;-97.822;2023-12-20T14:14:40;19.70;;;3.72;;
58460;SDS011;45558;37.752;-97.822;2023-12-20T14:17:06;14.77;;;2.67;;
58460;SDS011;45558;37.752;-97.822;2023-12-20T14:19:32;18.20;;;3.03;;
58460;SDS011;45558;37.752;-97.822;2023-12-20T14:21:58;26.95;;;3.45;;
58460;SDS011;45558;37.752;-97.822;2023-12-20T14:24:26;17.00;;;2.50;;
58460;SDS011;45558;37.752;-97.822;2023-12-20T14:26:52;27.88;;;3.58;;
58460;SDS011;45558;37.752;-97.822;2023-12-20T14:29:18;14.23;;;2.25;;
58460;SDS011;45558;37.752;-97.822;2023-12-20T14:31:44;17.27;;;2.38;;